Terminal Aerodrome Forecast
Issued by NWS

Home | Current Version | Previous Version | Graphics & Text | Print | Product List | Glossary On
Versions: 1 2 3 4 5 6 7 8 9 10 11 12 13 14 15 16 17 18 19 20 21
000
FTUS43 KICT 261724
TAFHUT
TAF
KHUT 261724Z 2618/2718 26012KT P6SM SCT250
     FM270000 VRB03KT P6SM SCT100
      TEMPO 2709/2713 5SM BR
     FM271400 12006KT P6SM FEW020=

USA.gov is the U.S. government's official web portal to all federal, state and local government web resources and services.